Time;durP1;ratioP1;P1;durP2;ratioP2;P2;SDS_P1;SDS_P2;PMS_P1;PMS_P2;Temp;Humidity;BMP_temperature;BMP_pressure;BME280_temperature;BME280_humidity;BME280_pressure;Samples;Min_cycle;Max_cycle;Signal;HPM_P1;HPM_P2
2023/10/21 00:00:24;;;;;;;22.67;12.50;;;10.90;99.90;;;;;;5072799;28;20040;-29
2023/10/21 00:02:53;;;;;;;23.38;13.82;;;10.80;99.90;;;;;;5072253;28;20041;-29
2023/10/21 00:05:18;;;;;;;23.75;14.95;;;10.80;99.90;;;;;;5072370;28;20487;-28
2023/10/21 00:07:44;;;;;;;27.83;15.30;;;10.80;99.90;;;;;;5070764;28;20040;-30
2023/10/21 00:10:10;;;;;;;31.38;15.70;;;10.80;99.90;;;;;;5071906;28;20039;-29
2023/10/21 00:12:36;;;;;;;105.53;19.70;;;10.80;99.90;;;;;;5054107;28;20044;-32
2023/10/21 00:15:05;;;;;;;24.83;13.40;;;10.70;99.90;;;;;;5072482;28;20044;-29
2023/10/21 00:17:30;;;;;;;18.48;11.20;;;10.60;99.90;;;;;;5072187;28;20059;-29
2023/10/21 00:19:56;;;;;;;20.25;11.02;;;10.50;99.90;;;;;;5072084;28;20040;-28
2023/10/21 00:22:22;;;;;;;18.80;10.85;;;10.50;99.90;;;;;;5072167;28;20037;-29
2023/10/21 00:24:48;;;;;;;23.30;13.00;;;10.40;99.90;;;;;;5072211;28;20036;-29
2023/10/21 00:27:13;;;;;;;22.70;12.48;;;10.30;99.90;;;;;;5072136;28;20487;-31
2023/10/21 00:29:39;;;;;;;21.02;11.93;;;10.20;99.90;;;;;;5072306;28;20044;-29
2023/10/21 00:32:05;;;;;;;18.00;11.52;;;10.20;99.90;;;;;;5072141;28;20507;-29
2023/10/21 00:34:31;;;;;;;30.90;14.50;;;10.10;99.90;;;;;;5071889;28;20076;-29
2023/10/21 00:36:57;;;;;;;28.77;15.00;;;10.00;99.90;;;;;;5071785;28;20056;-30
2023/10/21 00:39:23;;;;;;;27.60;13.63;;;10.00;99.90;;;;;;5072044;28;20033;-30
2023/10/21 00:41:49;;;;;;;26.92;15.00;;;10.00;99.90;;;;;;5072073;28;20048;-29
2023/10/21 00:44:14;;;;;;;21.35;13.07;;;10.00;99.90;;;;;;5072190;28;20479;-30
2023/10/21 00:46:42;;;;;;;32.50;14.85;;;9.90;99.90;;;;;;5072021;28;20040;-30
2023/10/21 00:49:08;;;;;;;26.52;13.23;;;9.90;99.90;;;;;;5071815;28;20044;-29
2023/10/21 00:51:35;;;;;;;22.05;13.82;;;9.80;99.90;;;;;;5072061;28;20048;-29
2023/10/21 00:54:01;;;;;;;17.50;12.68;;;9.80;99.90;;;;;;5071901;28;20119;-34
2023/10/21 00:56:27;;;;;;;14.55;11.13;;;9.80;99.90;;;;;;5072232;28;20041;-31
2023/10/21 00:58:53;;;;;;;38.50;15.20;;;9.70;99.90;;;;;;5071813;28;20036;-29
2023/10/21 01:01:19;;;;;;;84.90;17.98;;;9.60;99.90;;;;;;5071995;28;20047;-30
2023/10/21 01:03:45;;;;;;;18.10;10.95;;;9.60;99.90;;;;;;5070467;28;20107;-28
2023/10/21 01:06:11;;;;;;;16.65;11.80;;;9.60;99.90;;;;;;5071902;28;20040;-29
2023/10/21 01:08:41;;;;;;;26.98;13.05;;;9.50;99.90;;;;;;5071746;28;20399;-27
2023/10/21 01:11:08;;;;;;;21.52;11.68;;;9.50;99.90;;;;;;5070483;28;20127;-29
2023/10/21 01:13:34;;;;;;;26.92;11.70;;;9.40;99.90;;;;;;5071465;28;20119;-29
2023/10/21 01:16:00;;;;;;;19.40;10.77;;;9.40;99.90;;;;;;5071550;28;20079;-30
2023/10/21 01:18:29;;;;;;;43.88;11.38;;;9.30;99.90;;;;;;5071462;28;20036;-29
2023/10/21 01:20:54;;;;;;;15.23;10.45;;;9.30;99.90;;;;;;5071740;28;20040;-30
2023/10/21 01:23:20;;;;;;;24.25;11.02;;;9.30;99.90;;;;;;5071857;28;20064;-29
2023/10/21 01:25:46;;;;;;;30.67;12.93;;;9.20;99.90;;;;;;5071874;28;20398;-28
2023/10/21 01:28:12;;;;;;;18.48;11.35;;;9.20;99.90;;;;;;5071253;28;20040;-29
2023/10/21 01:30:37;;;;;;;17.33;11.45;;;9.10;99.90;;;;;;5071684;28;20040;-29
2023/10/21 01:33:03;;;;;;;19.05;11.40;;;9.10;99.90;;;;;;5071754;28;20510;-29
2023/10/21 01:35:29;;;;;;;18.25;11.55;;;9.10;99.90;;;;;;5071862;28;20094;-30
2023/10/21 01:37:55;;;;;;;32.55;13.98;;;9.10;99.90;;;;;;5075084;28;20037;-29
2023/10/21 01:40:20;;;;;;;20.45;11.88;;;9.10;99.90;;;;;;5075033;28;20403;-31
2023/10/21 01:42:46;;;;;;;20.58;12.82;;;9.10;99.90;;;;;;5075378;28;20032;-29
2023/10/21 01:45:12;;;;;;;34.80;13.23;;;9.00;99.90;;;;;;5075081;28;20089;-27
2023/10/21 01:47:37;;;;;;;18.90;11.35;;;9.00;99.90;;;;;;5075071;28;20041;-30
2023/10/21 01:50:08;;;;;;;91.85;18.50;;;9.00;99.90;;;;;;5074773;28;20098;-29
2023/10/21 01:52:36;;;;;;;32.25;14.05;;;9.00;99.90;;;;;;5075037;28;20449;-29
2023/10/21 01:55:06;;;;;;;28.17;11.57;;;9.00;99.90;;;;;;5074866;28;20062;-29
2023/10/21 01:57:32;;;;;;;23.17;12.20;;;9.00;99.90;;;;;;5074339;28;20055;-28
2023/10/21 01:59:59;;;;;;;140.32;24.30;;;9.00;99.90;;;;;;5074657;28;20540;-29
2023/10/21 02:02:25;;;;;;;35.58;14.70;;;8.90;99.90;;;;;;5074472;28;20041;-28
2023/10/21 02:04:52;;;;;;;37.90;16.67;;;8.90;99.90;;;;;;5074244;28;20048;-29
2023/10/21 02:07:17;;;;;;;31.77;18.02;;;8.90;99.90;;;;;;5074613;28;20041;-29
2023/10/21 02:09:43;;;;;;;26.48;15.88;;;9.00;99.90;;;;;;5074418;28;20036;-31
2023/10/21 02:12:09;;;;;;;33.60;18.45;;;9.10;99.90;;;;;;5074512;28;20052;-28
2023/10/21 02:14:34;;;;;;;27.92;16.20;;;9.20;99.90;;;;;;5072937;28;20487;-27
2023/10/21 02:17:00;;;;;;;34.42;17.83;;;9.10;99.90;;;;;;5074282;28;20051;-29
2023/10/21 02:19:26;;;;;;;41.53;19.45;;;9.20;99.90;;;;;;5074019;28;20067;-30
2023/10/21 02:21:51;;;;;;;26.20;16.30;;;9.20;99.90;;;;;;5074043;28;20047;-30
2023/10/21 02:24:17;;;;;;;45.80;21.17;;;9.20;99.90;;;;;;5074387;28;20127;-30
2023/10/21 02:26:43;;;;;;;32.80;17.90;;;9.20;99.90;;;;;;5056127;28;20403;-29
2023/10/21 02:29:09;;;;;;;46.15;21.30;;;9.30;99.90;;;;;;5074289;28;20040;-29
2023/10/21 02:31:35;;;;;;;42.88;19.23;;;9.30;99.90;;;;;;5074044;28;20421;-29
2023/10/21 02:34:00;;;;;;;43.00;20.90;;;9.30;99.90;;;;;;5074120;28;20032;-31
2023/10/21 02:36:26;;;;;;;31.92;18.27;;;9.30;99.90;;;;;;5073708;28;20044;-29
2023/10/21 02:38:52;;;;;;;37.40;20.63;;;9.40;99.90;;;;;;5073766;28;20052;-29
2023/10/21 02:41:18;;;;;;;41.22;23.40;;;9.40;99.90;;;;;;5074023;28;20040;-28
2023/10/21 02:43:43;;;;;;;34.60;19.15;;;9.50;99.90;;;;;;5073913;28;20037;-30
2023/10/21 02:46:11;;;;;;;56.20;22.52;;;9.40;99.90;;;;;;5073958;28;20089;-28
2023/10/21 02:48:37;;;;;;;40.58;19.60;;;9.50;99.90;;;;;;5072349;28;20178;-29
2023/10/21 02:51:14;;;;;;;55.67;23.25;;;9.40;99.90;;;;;;5072679;28;20048;-29
2023/10/21 02:53:40;;;;;;;38.90;20.25;;;9.40;99.90;;;;;;5073687;28;20403;-29
2023/10/21 02:58:37;;;;;;;61.00;25.13;;;9.60;99.90;;;;;;5021432;28;20523;-25
2023/10/21 03:01:17;;;;;;;44.15;22.13;;;9.60;99.90;;;;;;5020312;28;20037;-25
2023/10/21 03:03:44;;;;;;;47.25;21.58;;;9.60;99.90;;;;;;5013320;28;20265;-25
2023/10/21 03:06:11;;;;;;;50.35;21.30;;;9.60;99.90;;;;;;5032194;28;20041;-25
2023/10/21 03:08:37;;;;;;;43.58;21.52;;;9.50;99.90;;;;;;5015228;28;20038;-25
2023/10/21 03:11:04;;;;;;;36.22;20.25;;;9.50;99.90;;;;;;5013262;28;20042;-25
2023/10/21 03:13:36;;;;;;;35.30;19.13;;;9.50;99.90;;;;;;5010765;28;20129;-25
2023/10/21 03:16:06;;;;;;;87.55;28.42;;;9.50;99.90;;;;;;4998074;28;20049;-25
2023/10/21 03:18:32;;;;;;;41.13;21.00;;;9.50;99.90;;;;;;5013236;28;20046;-24
2023/10/21 03:20:58;;;;;;;38.55;19.77;;;9.50;99.90;;;;;;5017355;28;20051;-25
2023/10/21 03:23:23;;;;;;;39.92;21.55;;;9.50;99.90;;;;;;5025953;28;20496;-25
2023/10/21 03:26:00;;;;;;;39.47;20.50;;;9.50;99.90;;;;;;5019366;28;20040;-25
2023/10/21 03:28:27;;;;;;;43.20;21.33;;;9.60;99.90;;;;;;5003244;28;20503;-25
2023/10/21 03:31:00;;;;;;;47.20;21.77;;;9.70;99.90;;;;;;5016261;28;20042;-25
2023/10/21 03:33:27;;;;;;;45.53;21.70;;;9.80;99.90;;;;;;5010969;28;20073;-25
2023/10/21 03:35:53;;;;;;;55.42;24.33;;;9.80;99.90;;;;;;5004216;28;20125;-25
2023/10/21 03:38:19;;;;;;;45.13;20.88;;;9.90;99.90;;;;;;5018042;28;20473;-25
2023/10/21 03:41:00;;;;;;;52.95;24.25;;;10.00;99.90;;;;;;5018464;28;20049;-25
2023/10/21 03:43:26;;;;;;;46.40;22.33;;;10.00;99.90;;;;;;5012672;28;20073;-25
2023/10/21 03:45:52;;;;;;;45.90;21.45;;;10.00;99.90;;;;;;4990565;28;20052;-25
2023/10/21 03:48:18;;;;;;;44.38;22.20;;;10.00;99.90;;;;;;5012760;28;20120;-25
2023/10/21 03:50:44;;;;;;;55.40;23.30;;;10.10;99.90;;;;;;5002440;28;20457;-25
2023/10/21 03:53:11;;;;;;;42.67;21.25;;;10.10;99.90;;;;;;4988788;28;20070;-25
2023/10/21 03:55:37;;;;;;;50.95;21.95;;;10.10;99.90;;;;;;5012467;28;20045;-25
2023/10/21 03:58:03;;;;;;;45.67;21.08;;;10.10;99.90;;;;;;4999212;28;20468;-24
2023/10/21 04:00:29;;;;;;;50.55;22.20;;;10.10;99.90;;;;;;4958931;28;20050;-24
2023/10/21 04:02:55;;;;;;;38.92;20.17;;;10.10;99.90;;;;;;4996243;28;20113;-25
2023/10/21 04:05:20;;;;;;;52.78;21.08;;;10.00;99.90;;;;;;5007708;28;20030;-25
2023/10/21 04:07:46;;;;;;;32.50;17.10;;;10.00;99.90;;;;;;5021147;28;20045;-25
2023/10/21 04:10:12;;;;;;;42.45;20.25;;;9.90;99.90;;;;;;5008392;28;20515;-25
2023/10/21 04:12:39;;;;;;;45.42;20.33;;;9.90;99.90;;;;;;5023274;28;20034;-25
2023/10/21 04:15:07;;;;;;;45.58;21.13;;;9.90;99.90;;;;;;5025915;28;20100;-27
2023/10/21 04:17:33;;;;;;;37.33;19.73;;;9.90;99.90;;;;;;5011878;28;20045;-27
2023/10/21 04:19:59;;;;;;;44.78;21.27;;;9.90;99.90;;;;;;4987792;28;20042;-27
2023/10/21 04:22:25;;;;;;;38.80;18.80;;;9.90;99.90;;;;;;5010713;28;20071;-27
2023/10/21 04:24:51;;;;;;;35.25;18.67;;;9.90;99.90;;;;;;5011630;28;20036;-26
2023/10/21 04:27:17;;;;;;;36.78;17.60;;;9.80;99.90;;;;;;5009653;28;20038;-27
2023/10/21 04:29:42;;;;;;;36.75;18.25;;;9.90;99.90;;;;;;4993584;28;20057;-26
2023/10/21 04:32:08;;;;;;;34.53;18.02;;;9.90;99.90;;;;;;5009655;28;20037;-27
2023/10/21 04:34:33;;;;;;;30.38;17.35;;;9.90;99.90;;;;;;5009467;28;20041;-26
2023/10/21 04:36:59;;;;;;;36.60;17.90;;;9.80;99.90;;;;;;5006838;28;20061;-27
2023/10/21 04:39:25;;;;;;;30.25;16.95;;;9.80;99.90;;;;;;5008204;28;20030;-26
2023/10/21 04:41:50;;;;;;;35.35;19.30;;;9.80;99.90;;;;;;5012234;28;20034;-27
2023/10/21 04:44:16;;;;;;;39.92;20.05;;;9.80;99.90;;;;;;5007108;28;20038;-27
2023/10/21 04:46:42;;;;;;;35.10;18.40;;;9.90;99.90;;;;;;5011156;28;20416;-27
2023/10/21 04:49:08;;;;;;;34.53;18.65;;;9.80;99.90;;;;;;5008886;28;20531;-26
2023/10/21 04:51:33;;;;;;;36.78;18.77;;;9.80;99.90;;;;;;5011926;28;20415;-26
2023/10/21 04:53:59;;;;;;;55.70;21.83;;;9.90;99.90;;;;;;5012061;28;20447;-27
2023/10/21 04:56:28;;;;;;;30.80;17.88;;;9.80;99.90;;;;;;5012348;28;20121;-27
2023/10/21 04:58:53;;;;;;;37.70;20.15;;;9.80;99.90;;;;;;5010709;28;20031;-28
2023/10/21 05:01:19;;;;;;;38.33;19.38;;;9.90;99.90;;;;;;5009474;28;20562;-27
2023/10/21 05:03:44;;;;;;;32.45;17.77;;;9.90;99.90;;;;;;5009316;28;20515;-27
2023/10/21 05:06:10;;;;;;;30.40;16.98;;;9.90;99.90;;;;;;5008302;28;20121;-27
2023/10/21 05:08:36;;;;;;;30.45;17.17;;;9.90;99.90;;;;;;5013953;28;20085;-28
2023/10/21 05:11:02;;;;;;;28.15;16.95;;;9.90;99.90;;;;;;5011109;28;20049;-28
2023/10/21 05:13:28;;;;;;;26.48;17.77;;;9.80;99.90;;;;;;5009944;28;20088;-28
2023/10/21 05:15:54;;;;;;;28.38;17.60;;;9.80;99.90;;;;;;5014002;28;20480;-28
2023/10/21 05:18:20;;;;;;;34.70;19.05;;;9.80;99.90;;;;;;4996196;28;20056;-28
2023/10/21 05:20:46;;;;;;;27.15;15.75;;;9.80;99.90;;;;;;4991713;28;20049;-27
2023/10/21 05:23:11;;;;;;;27.17;16.58;;;9.80;99.90;;;;;;5008837;28;20033;-28
2023/10/21 05:25:37;;;;;;;28.17;15.35;;;9.80;99.90;;;;;;5012189;28;20038;-28
2023/10/21 05:28:03;;;;;;;34.90;18.65;;;9.80;99.90;;;;;;5009314;28;20469;-27
2023/10/21 05:30:29;;;;;;;30.35;16.33;;;9.80;99.90;;;;;;5014678;28;20088;-28
2023/10/21 05:32:55;;;;;;;28.23;16.77;;;9.80;99.90;;;;;;5005097;28;20291;-28
2023/10/21 05:35:21;;;;;;;35.28;17.42;;;9.80;99.90;;;;;;5007225;28;20030;-27
2023/10/21 05:37:47;;;;;;;24.33;14.82;;;9.80;99.90;;;;;;5009550;28;20474;-27
2023/10/21 05:40:13;;;;;;;31.05;17.75;;;9.80;99.90;;;;;;4994754;28;20030;-28
2023/10/21 05:42:38;;;;;;;31.67;17.63;;;9.80;99.90;;;;;;5009639;28;20049;-28
2023/10/21 05:45:05;;;;;;;24.00;14.82;;;9.80;99.90;;;;;;4990074;28;20038;-28
2023/10/21 05:47:31;;;;;;;30.10;16.45;;;9.80;99.90;;;;;;5007524;28;20038;-28
2023/10/21 05:49:56;;;;;;;34.33;16.50;;;9.80;99.90;;;;;;5011811;28;20045;-28
2023/10/21 05:52:22;;;;;;;33.13;17.13;;;9.90;99.90;;;;;;4992780;28;20440;-29
2023/10/21 05:54:48;;;;;;;45.83;19.85;;;9.90;99.90;;;;;;5009217;28;20615;-28
2023/10/21 05:57:14;;;;;;;27.52;16.60;;;9.90;99.90;;;;;;5003187;28;20038;-28
2023/10/21 05:59:40;;;;;;;25.33;16.08;;;10.00;99.90;;;;;;5012493;28;20065;-28
2023/10/21 06:02:06;;;;;;;30.90;16.98;;;10.00;99.90;;;;;;5013696;28;20077;-27
2023/10/21 06:04:32;;;;;;;36.92;18.98;;;10.00;99.90;;;;;;5010770;28;20389;-27
2023/10/21 06:06:57;;;;;;;35.33;18.40;;;10.00;99.90;;;;;;5014651;28;20116;-27
2023/10/21 06:09:25;;;;;;;25.35;16.08;;;10.10;99.90;;;;;;5014170;28;20475;-27
2023/10/21 06:11:51;;;;;;;34.60;17.58;;;10.10;99.90;;;;;;5012453;28;20042;-28
2023/10/21 06:14:20;;;;;;;32.13;17.13;;;10.10;99.90;;;;;;5011705;28;20048;-27
2023/10/21 06:16:45;;;;;;;30.83;17.48;;;10.10;99.90;;;;;;5013639;28;20042;-27
2023/10/21 06:19:11;;;;;;;32.45;16.95;;;10.10;99.90;;;;;;5013101;28;20034;-28
2023/10/21 06:21:37;;;;;;;30.45;17.98;;;10.20;99.90;;;;;;5009380;28;20067;-28
2023/10/21 06:24:03;;;;;;;30.20;17.55;;;10.20;99.90;;;;;;5018019;28;20431;-28
2023/10/21 06:26:32;;;;;;;33.55;17.50;;;10.20;99.90;;;;;;5013053;28;20034;-28
2023/10/21 06:28:59;;;;;;;35.58;19.25;;;10.30;99.90;;;;;;5012226;28;20044;-28
2023/10/21 06:31:25;;;;;;;41.22;20.67;;;10.40;99.90;;;;;;5012993;28;20038;-28
2023/10/21 06:33:50;;;;;;;32.05;18.30;;;10.40;99.90;;;;;;5012154;28;20069;-28
2023/10/21 06:36:17;;;;;;;45.40;19.70;;;10.40;99.90;;;;;;5010485;28;20069;-28
2023/10/21 06:38:43;;;;;;;38.92;19.00;;;10.50;99.90;;;;;;5009367;28;20534;-28
2023/10/21 06:41:10;;;;;;;34.20;17.55;;;10.50;99.90;;;;;;5009617;28;20049;-28
2023/10/21 06:43:40;;;;;;;29.73;17.50;;;10.50;99.90;;;;;;4990225;28;20289;-28
2023/10/21 06:46:06;;;;;;;29.15;16.42;;;10.50;99.90;;;;;;5005495;28;20412;-28
2023/10/21 06:48:32;;;;;;;30.13;17.23;;;10.60;99.90;;;;;;5009146;28;20188;-28
2023/10/21 06:50:58;;;;;;;27.90;16.65;;;10.70;99.90;;;;;;5011385;28;20552;-28
2023/10/21 06:53:26;;;;;;;32.78;17.55;;;10.70;99.90;;;;;;5004762;28;20037;-29
2023/10/21 06:55:51;;;;;;;28.88;16.20;;;10.70;99.90;;;;;;4991248;28;20584;-28
2023/10/21 06:58:17;;;;;;;35.38;16.65;;;10.70;99.90;;;;;;5000446;28;20095;-28
2023/10/21 07:00:43;;;;;;;32.78;17.40;;;10.80;99.90;;;;;;5007068;28;20181;-29
2023/10/21 07:03:09;;;;;;;32.50;16.73;;;10.80;99.90;;;;;;5000665;28;20038;-28
2023/10/21 07:05:35;;;;;;;27.63;17.50;;;10.90;99.90;;;;;;4994143;28;20523;-28
2023/10/21 07:08:01;;;;;;;27.98;16.00;;;11.00;99.90;;;;;;4982159;28;20150;-29
2023/10/21 07:10:29;;;;;;;27.10;17.20;;;11.10;99.90;;;;;;4974432;28;20068;-29
2023/10/21 07:13:03;;;;;;;26.75;16.67;;;11.20;99.90;;;;;;4995017;28;20069;-28
2023/10/21 07:15:31;;;;;;;30.98;17.70;;;11.30;99.90;;;;;;4995456;28;20049;-29
2023/10/21 07:17:57;;;;;;;30.63;17.83;;;11.40;99.90;;;;;;5001906;28;20466;-29
2023/10/21 07:20:25;;;;;;;31.75;17.98;;;11.50;99.90;;;;;;5005989;28;20105;-28
2023/10/21 07:22:52;;;;;;;32.80;18.33;;;11.60;99.90;;;;;;5000696;28;20041;-28
2023/10/21 07:25:18;;;;;;;30.80;18.55;;;11.70;99.90;;;;;;4983865;28;20077;-28
2023/10/21 07:27:47;;;;;;;30.20;18.20;;;11.80;99.90;;;;;;4991974;28;20041;-29
2023/10/21 07:30:14;;;;;;;32.00;17.90;;;11.90;99.90;;;;;;4991212;28;20126;-29
2023/10/21 07:32:40;;;;;;;31.45;17.75;;;11.90;99.90;;;;;;4995098;28;20047;-28
2023/10/21 07:35:06;;;;;;;29.30;17.35;;;12.00;99.90;;;;;;4990929;28;20040;-28
2023/10/21 07:37:31;;;;;;;27.63;16.73;;;12.10;99.90;;;;;;4996324;28;20065;-28
2023/10/21 07:40:01;;;;;;;27.70;17.25;;;12.20;99.90;;;;;;4995989;28;20408;-29
2023/10/21 07:42:27;;;;;;;26.38;16.90;;;12.30;99.90;;;;;;4999942;28;20034;-29
2023/10/21 07:44:53;;;;;;;28.13;17.08;;;12.40;99.90;;;;;;4995147;28;20034;-28
2023/10/21 07:47:20;;;;;;;28.55;16.70;;;12.60;99.90;;;;;;4996480;28;20040;-28
2023/10/21 07:49:46;;;;;;;22.23;15.60;;;12.70;99.90;;;;;;4995976;28;20496;-28
2023/10/21 07:52:13;;;;;;;24.92;15.40;;;12.80;99.90;;;;;;4979435;28;20061;-28
2023/10/21 07:54:39;;;;;;;20.23;13.63;;;12.90;99.90;;;;;;4993461;28;20038;-28
2023/10/21 07:57:05;;;;;;;20.23;14.10;;;13.00;99.90;;;;;;4995528;28;20100;-29
2023/10/21 07:59:31;;;;;;;17.52;12.63;;;13.00;99.90;;;;;;4974634;28;20144;-28
2023/10/21 08:01:57;;;;;;;13.00;11.38;;;13.10;99.90;;;;;;4995055;28;20037;-29
2023/10/21 08:04:23;;;;;;;15.15;11.30;;;13.20;99.90;;;;;;4989039;28;20420;-29
2023/10/21 08:06:50;;;;;;;14.00;10.75;;;13.20;99.90;;;;;;4989452;28;20042;-28
2023/10/21 08:09:17;;;;;;;20.52;10.27;;;13.30;99.90;;;;;;4990779;28;20045;-28
2023/10/21 08:11:43;;;;;;;14.57;10.82;;;13.30;99.90;;;;;;4996467;28;20050;-27
2023/10/21 08:14:12;;;;;;;15.88;11.25;;;13.40;99.90;;;;;;4997251;28;20551;-28
2023/10/21 08:16:38;;;;;;;13.35;10.00;;;13.60;99.90;;;;;;5002723;28;20508;-28
2023/10/21 08:19:05;;;;;;;12.02;9.00;;;14.10;99.90;;;;;;5001564;28;20449;-28
2023/10/21 08:21:33;;;;;;;8.10;7.32;;;14.70;99.90;;;;;;5004586;28;20501;-29
2023/10/21 08:24:02;;;;;;;8.95;7.50;;;15.30;99.90;;;;;;5003079;28;20118;-28
2023/10/21 08:26:28;;;;;;;7.65;6.47;;;15.70;99.90;;;;;;5004395;28;20069;-28
2023/10/21 08:28:54;;;;;;;7.72;6.60;;;16.20;99.90;;;;;;5005386;28;20045;-29
2023/10/21 08:31:20;;;;;;;9.02;6.07;;;16.50;99.90;;;;;;5007294;28;20037;-28
2023/10/21 08:33:46;;;;;;;8.52;6.00;;;16.80;99.90;;;;;;4989948;28;20050;-31
2023/10/21 08:36:18;;;;;;;6.10;5.38;;;16.90;99.90;;;;;;5003934;28;20430;-30
2023/10/21 08:38:45;;;;;;;7.97;5.53;;;17.20;99.90;;;;;;4988027;28;20496;-30
2023/10/21 08:41:14;;;;;;;7.38;5.57;;;17.20;99.90;;;;;;4990358;28;20064;-30
2023/10/21 08:43:46;;;;;;;8.27;5.60;;;17.00;99.90;;;;;;5007707;28;20065;-30
2023/10/21 08:46:17;;;;;;;8.23;5.90;;;16.80;99.90;;;;;;5007598;28;20034;-31
2023/10/21 08:48:47;;;;;;;8.60;5.80;;;16.70;99.90;;;;;;5011911;28;20054;-27
2023/10/21 08:51:18;;;;;;;9.32;6.32;;;16.90;99.90;;;;;;5010179;28;20052;-27
2023/10/21 08:53:46;;;;;;;7.53;5.70;;;17.20;99.90;;;;;;5012857;28;20041;-28
2023/10/21 08:58:41;;;;;;;6.55;5.45;;;17.20;99.90;;;;;;5052766;22;20555;-86
2023/10/21 09:01:16;;;;;;;9.80;5.13;;;16.90;99.90;;;;;;4997781;28;20048;-88
2023/10/21 09:03:45;;;;;;;5.03;4.43;;;16.60;99.90;;;;;;5015730;28;20038;-87
2023/10/21 09:06:11;;;;;;;5.75;5.13;;;16.20;99.90;;;;;;4999408;28;20148;-86
2023/10/21 09:08:48;;;;;;;7.43;5.60;;;16.00;99.90;;;;;;4998321;28;20043;-86
2023/10/21 09:11:20;;;;;;;11.40;6.43;;;15.80;99.90;;;;;;5016795;28;20057;-86
2023/10/21 09:13:47;;;;;;;9.50;6.97;;;15.70;99.90;;;;;;5008124;28;20496;-85
2023/10/21 09:16:31;;;;;;;8.57;7.22;;;15.50;99.90;;;;;;4999250;28;20076;-86
2023/10/21 09:19:00;;;;;;;9.38;8.35;;;15.40;99.90;;;;;;5013942;28;20373;-88
2023/10/21 09:21:34;;;;;;;7.53;5.75;;;15.30;99.90;;;;;;5010808;28;20038;-85
2023/10/21 09:24:21;;;;;;;10.45;6.80;;;15.20;99.90;;;;;;5014229;28;20066;-87
2023/10/21 09:26:48;;;;;;;7.25;5.00;;;15.10;99.90;;;;;;5012440;28;20042;-86
2023/10/21 09:29:18;;;;;;;5.22;4.38;;;14.90;99.90;;;;;;5014877;28;20038;-86
2023/10/21 09:31:51;;;;;;;4.15;3.13;;;14.90;99.90;;;;;;4999377;28;20562;-87
2023/10/21 09:34:29;;;;;;;3.63;3.33;;;14.80;99.90;;;;;;5010589;28;20038;-86
2023/10/21 09:37:00;;;;;;;3.95;3.60;;;14.80;99.90;;;;;;5012410;28;20725;-86
2023/10/21 09:39:33;;;;;;;6.60;3.22;;;14.70;99.90;;;;;;5014577;28;20112;-85
2023/10/21 09:42:00;;;;;;;4.80;3.28;;;14.70;99.90;;;;;;5015191;28;20480;-85
2023/10/21 09:44:27;;;;;;;4.03;3.63;;;14.70;99.90;;;;;;4997362;28;20034;-85
2023/10/21 09:46:55;;;;;;;4.25;2.70;;;14.70;99.90;;;;;;5000153;28;20487;-84
2023/10/21 09:49:24;;;;;;;2.85;2.55;;;14.60;99.90;;;;;;5015488;28;20038;-80
2023/10/21 09:51:56;;;;;;;2.40;2.20;;;14.50;99.90;;;;;;5016674;28;20104;-85
2023/10/21 09:54:32;;;;;;;2.67;2.40;;;14.40;99.90;;;;;;4999383;28;20041;-87
2023/10/21 09:57:01;;;;;;;4.63;2.22;;;14.40;99.90;;;;;;4997654;28;20056;-86
2023/10/21 09:59:28;;;;;;;2.50;2.30;;;14.30;99.90;;;;;;4998528;28;20041;-85
2023/10/21 10:01:56;;;;;;;2.97;2.53;;;14.30;99.90;;;;;;5009761;28;20409;-88
2023/10/21 10:04:26;;;;;;;3.15;2.47;;;14.30;99.90;;;;;;4996555;28;20044;-87
2023/10/21 10:06:58;;;;;;;4.85;2.60;;;14.20;99.90;;;;;;5012049;28;20076;-87
2023/10/21 10:09:26;;;;;;;2.67;2.10;;;14.20;99.90;;;;;;4996436;28;20403;-86
2023/10/21 10:11:58;;;;;;;3.03;1.80;;;14.20;99.90;;;;;;5006635;28;20064;-85
2023/10/21 10:14:29;;;;;;;2.65;1.70;;;14.20;99.90;;;;;;5011089;28;20038;-85
2023/10/21 10:16:55;;;;;;;1.33;1.20;;;14.30;99.90;;;;;;5012338;28;20050;-87
2023/10/21 10:19:43;;;;;;;2.25;1.20;;;14.40;99.90;;;;;;5011180;28;20042;-86
2023/10/21 10:22:20;;;;;;;3.35;1.17;;;14.70;99.90;;;;;;4994827;28;20038;-85
2023/10/21 10:25:04;;;;;;;1.83;0.95;;;15.00;99.90;;;;;;5013968;28;20065;-85
2023/10/21 10:27:38;;;;;;;1.00;0.93;;;15.30;99.90;;;;;;5008555;28;20519;-84
2023/10/21 10:30:14;;;;;;;1.13;1.00;;;16.00;99.90;;;;;;5000419;28;20040;-85
2023/10/21 10:32:43;;;;;;;1.33;1.10;;;16.60;99.90;;;;;;4992840;28;20116;-84
2023/10/21 10:35:09;;;;;;;1.20;0.82;;;17.10;99.90;;;;;;5011639;28;20077;-85
2023/10/21 10:37:36;;;;;;;0.90;0.80;;;17.10;99.90;;;;;;4993660;28;20061;-85
2023/10/21 10:40:41;;;;;;;1.08;0.77;;;16.80;99.90;;;;;;4987433;28;20038;-84
2023/10/21 10:43:13;;;;;;;2.42;1.90;;;16.30;99.90;;;;;;5006193;28;20619;-84
2023/10/21 10:45:39;;;;;;;1.35;1.10;;;16.40;99.90;;;;;;5013318;28;20038;-84
2023/10/21 10:48:07;;;;;;;2.15;1.00;;;16.40;99.90;;;;;;5011614;28;20516;-85
2023/10/21 10:50:37;;;;;;;1.67;1.50;;;16.50;99.90;;;;;;4995870;28;20050;-85
2023/10/21 10:53:17;;;;;;;1.02;0.93;;;16.40;99.90;;;;;;5009047;28;20567;-85
2023/10/21 10:55:45;;;;;;;2.13;1.02;;;16.40;99.90;;;;;;4996101;28;20489;-85
2023/10/21 10:58:11;;;;;;;1.02;0.93;;;16.30;99.90;;;;;;5010786;28;20030;-84
2023/10/21 11:00:39;;;;;;;1.92;1.00;;;16.40;99.90;;;;;;4994888;28;20443;-84
2023/10/21 11:03:08;;;;;;;2.63;0.85;;;16.40;99.90;;;;;;5008887;28;20034;-84
2023/10/21 11:05:37;;;;;;;1.48;1.00;;;16.40;99.90;;;;;;4995166;28;20514;-86
2023/10/21 11:08:07;;;;;;;3.65;0.82;;;16.60;99.90;;;;;;4988513;28;20038;-85
2023/10/21 11:10:33;;;;;;;2.58;0.90;;;16.50;99.90;;;;;;5011464;28;20045;-84
2023/10/21 11:12:59;;;;;;;1.05;0.82;;;16.50;99.90;;;;;;5010211;28;20129;-84
2023/10/21 11:15:24;;;;;;;2.05;1.00;;;16.40;99.90;;;;;;4990450;28;20120;-84
2023/10/21 11:17:51;;;;;;;1.85;1.00;;;16.20;99.90;;;;;;4993872;28;20048;-85
2023/10/21 11:20:18;;;;;;;1.15;0.95;;;16.20;99.90;;;;;;4998464;28;20734;-84
2023/10/21 11:22:44;;;;;;;2.63;0.70;;;15.90;99.90;;;;;;4999451;28;20037;-84
2023/10/21 11:25:10;;;;;;;1.30;0.93;;;15.70;99.90;;;;;;5013377;28;20038;-84
2023/10/21 11:27:38;;;;;;;1.27;0.80;;;15.60;99.90;;;;;;5017235;28;20049;-84
2023/10/21 11:30:07;;;;;;;2.80;1.30;;;15.50;99.90;;;;;;4997425;28;20049;-85
2023/10/21 11:32:35;;;;;;;1.17;1.00;;;15.40;99.90;;;;;;5010947;28;20038;-83
2023/10/21 11:35:05;;;;;;;2.42;0.80;;;15.20;99.90;;;;;;5002045;28;20030;-83
2023/10/21 11:37:31;;;;;;;0.95;0.80;;;15.20;99.90;;;;;;5013861;28;20528;-83
2023/10/21 11:40:00;;;;;;;2.03;1.00;;;15.10;99.90;;;;;;5017998;28;20413;-83
2023/10/21 11:42:29;;;;;;;0.85;0.85;;;15.00;99.90;;;;;;5001703;28;20042;-83
2023/10/21 11:45:00;;;;;;;2.00;0.90;;;15.00;99.90;;;;;;5016428;28;20085;-83
2023/10/21 11:47:30;;;;;;;2.13;0.95;;;15.00;99.90;;;;;;5016249;28;20034;-83
2023/10/21 11:49:57;;;;;;;1.73;1.25;;;15.00;99.90;;;;;;5000897;28;20615;-83
2023/10/21 11:52:25;;;;;;;1.83;0.90;;;15.00;99.90;;;;;;5017884;28;20065;-82
2023/10/21 12:24:40;;;;;;;1.85;1.10;;;16.40;99.90;;;;;;5018012;28;20041;-86
2023/10/21 12:38:05;;;;;;;3.17;0.90;;;18.20;99.90;;;;;;5004093;28;20046;-86
2023/10/21 12:40:32;;;;;;;2.72;2.35;;;18.20;99.90;;;;;;5014697;28;20497;-86
2023/10/21 12:43:23;;;;;;;1.38;0.90;;;18.10;99.90;;;;;;5013002;28;20527;-85
2023/10/21 12:45:50;;;;;;;2.22;0.93;;;18.10;99.90;;;;;;4994483;28;20029;-85
2023/10/21 12:48:19;;;;;;;2.15;1.55;;;19.10;99.90;;;;;;5013255;28;20101;-86
2023/10/21 12:50:54;;;;;;;1.25;1.08;;;19.80;99.90;;;;;;4997625;28;20415;-86
2023/10/21 12:53:20;;;;;;;2.05;1.13;;;20.30;99.90;;;;;;4997014;28;20034;-86
2023/10/21 12:55:49;;;;;;;2.35;1.08;;;21.20;99.90;;;;;;5018137;28;20046;-83
2023/10/21 12:58:15;;;;;;;6.32;1.70;;;21.90;99.90;;;;;;5014759;28;20046;-83
2023/10/21 13:00:43;;;;;;;1.63;1.00;;;22.60;99.90;;;;;;5019120;28;20116;-85
2023/10/21 13:03:13;;;;;;;1.73;0.85;;;22.80;99.90;;;;;;5016194;28;20045;-86
2023/10/21 13:05:39;;;;;;;3.05;1.20;;;23.20;99.90;;;;;;5019063;28;20523;-86
2023/10/21 13:08:09;;;;;;;1.88;1.48;;;22.90;99.90;;;;;;5019465;28;20400;-86
2023/10/21 13:10:35;;;;;;;4.20;1.70;;;22.30;99.90;;;;;;5016682;28;20505;-85
2023/10/21 13:13:02;;;;;;;2.60;1.20;;;21.90;99.90;;;;;;5013925;28;20135;-85
2023/10/21 13:15:29;;;;;;;1.70;0.85;;;21.50;99.90;;;;;;5000492;28;20141;-85
2023/10/21 13:17:55;;;;;;;1.77;1.13;;;20.80;99.90;;;;;;5025011;28;20033;-86
2023/10/21 13:20:20;;;;;;;2.40;1.20;;;20.00;99.90;;;;;;5014195;28;20038;-86
2023/10/21 13:22:46;;;;;;;3.22;0.80;;;19.40;99.90;;;;;;5013861;28;20038;-86
2023/10/21 13:25:17;;;;;;;2.45;0.90;;;19.10;99.90;;;;;;5010690;28;20041;-85